createdAt,value
2016-08-03T00:00:30.640Z,0
2016-08-03T00:01:29.939Z,0
2016-08-03T00:02:29.922Z,0
2016-08-03T00:03:30.622Z,0
2016-08-03T00:04:30.608Z,0
2016-08-03T00:05:29.182Z,0
2016-08-03T00:06:29.174Z,0
2016-08-03T00:07:30.598Z,0
2016-08-03T00:08:30.562Z,0
2016-08-03T00:09:30.555Z,0
2016-08-03T00:10:31.252Z,0
2016-08-03T00:11:29.880Z,0
2016-08-03T00:12:29.117Z,0
2016-08-03T00:13:30.524Z,0
2016-08-03T00:14:30.507Z,0
2016-08-03T00:15:30.502Z,0
2016-08-03T00:16:29.793Z,0
2016-08-03T00:17:29.774Z,0
2016-08-03T00:18:30.477Z,0
2016-08-03T00:19:29.051Z,0
2016-08-03T00:20:29.748Z,0
2016-08-03T00:21:30.467Z,0
2016-08-03T00:22:29.019Z,0
2016-08-03T00:23:29.006Z,0
2016-08-03T00:24:30.459Z,0
2016-08-03T00:25:29.748Z,0
2016-08-03T00:26:29.689Z,0
2016-08-03T00:27:31.090Z,0
2016-08-03T00:29:29.003Z,0
2016-08-03T00:30:29.657Z,0
2016-08-03T00:31:28.944Z,0
2016-08-03T00:32:29.627Z,0
2016-08-03T00:33:28.912Z,0
2016-08-03T00:34:30.323Z,0
2016-08-03T00:35:30.304Z,0
2016-08-03T00:36:29.593Z,0
2016-08-03T00:37:28.874Z,0
2016-08-03T00:38:28.871Z,0
2016-08-03T00:39:29.564Z,0
2016-08-03T00:40:28.848Z,0
2016-08-03T00:41:29.548Z,0
2016-08-03T00:42:30.240Z,0
2016-08-03T00:43:29.522Z,0
2016-08-03T00:44:29.515Z,0
2016-08-03T00:45:30.918Z,0
2016-08-03T00:46:30.202Z,0
2016-08-03T00:47:29.486Z,0
2016-08-03T00:48:29.480Z,0
2016-08-03T00:49:30.177Z,0
2016-08-03T00:50:29.461Z,0
2016-08-03T00:51:30.153Z,0
2016-08-03T00:52:30.158Z,0
2016-08-03T00:53:29.429Z,0
2016-08-03T00:54:29.418Z,0
2016-08-03T00:55:28.897Z,0
2016-08-03T00:56:29.409Z,0
2016-08-03T00:57:29.394Z,0
2016-08-03T00:58:30.809Z,0
2016-08-03T00:59:29.374Z,0
2016-08-03T01:00:30.074Z,0
2016-08-03T01:01:30.063Z,0
2016-08-03T01:02:30.052Z,0
2016-08-03T01:03:30.037Z,0
2016-08-03T01:04:30.028Z,0
2016-08-03T01:05:30.016Z,0
2016-08-03T01:06:30.716Z,0
2016-08-03T01:07:29.293Z,0
2016-08-03T01:08:29.284Z,0
2016-08-03T01:09:29.275Z,0
2016-08-03T01:10:29.978Z,0
2016-08-03T01:11:29.967Z,0
2016-08-03T01:12:29.257Z,0
2016-08-03T01:13:29.242Z,0
2016-08-03T01:14:29.221Z,0
2016-08-03T01:15:28.504Z,0
2016-08-03T01:16:30.619Z,0
2016-08-03T01:17:29.903Z,0
2016-08-03T01:18:29.893Z,0
2016-08-03T01:19:29.895Z,0
2016-08-03T01:20:29.882Z,0
2016-08-03T01:21:29.160Z,0
2016-08-03T01:22:29.905Z,0
2016-08-03T01:23:30.558Z,0
2016-08-03T01:24:29.832Z,0
2016-08-03T01:25:29.113Z,0
2016-08-03T01:26:29.104Z,0
2016-08-03T01:27:29.807Z,0
2016-08-03T01:28:30.504Z,0
2016-08-03T01:29:29.792Z,0
2016-08-03T01:30:28.365Z,0
2016-08-03T01:31:29.063Z,0
2016-08-03T01:32:29.054Z,0
2016-08-03T01:33:29.745Z,0
2016-08-03T01:34:29.735Z,0
2016-08-03T01:35:29.022Z,0
2016-08-03T01:36:29.727Z,0
2016-08-03T01:37:29.014Z,0
2016-08-03T01:38:28.993Z,0
2016-08-03T01:39:28.989Z,0
2016-08-03T01:40:28.979Z,0
2016-08-03T01:41:28.257Z,0
2016-08-03T01:42:28.961Z,0
2016-08-03T01:43:28.953Z,0
2016-08-03T01:44:29.706Z,0
2016-08-03T01:45:28.218Z,0
2016-08-03T01:46:29.619Z,0
2016-08-03T01:47:29.616Z,0
2016-08-03T01:48:29.612Z,0
2016-08-03T01:49:28.939Z,0
2016-08-03T01:50:28.170Z,0
2016-08-03T01:51:30.285Z,0
2016-08-03T01:52:30.274Z,0
2016-08-03T01:53:28.847Z,0
2016-08-03T01:54:28.128Z,0
2016-08-03T01:55:29.538Z,0
2016-08-03T01:56:28.116Z,0
2016-08-03T01:57:28.811Z,0
2016-08-03T01:58:28.803Z,0
2016-08-03T01:59:30.221Z,0
2016-08-03T02:00:30.204Z,0
2016-08-03T02:01:28.768Z,0
2016-08-03T02:02:28.758Z,0
2016-08-03T02:03:28.041Z,0
2016-08-03T02:04:29.447Z,0
2016-08-03T02:05:28.735Z,0
2016-08-03T02:06:30.142Z,0
2016-08-03T02:07:29.425Z,0
2016-08-03T02:08:29.428Z,0
2016-08-03T02:09:29.417Z,0
2016-08-03T02:10:29.395Z,0
2016-08-03T02:11:28.675Z,0
2016-08-03T02:12:28.665Z,0
2016-08-03T02:13:27.946Z,0
2016-08-03T02:14:28.655Z,0
2016-08-03T02:15:28.637Z,0
2016-08-03T02:16:29.333Z,0
2016-08-03T02:17:27.918Z,0
2016-08-03T02:18:28.607Z,0
2016-08-03T02:19:27.893Z,0
2016-08-03T02:20:28.599Z,0
2016-08-03T02:21:28.574Z,0
2016-08-03T02:22:27.857Z,0
2016-08-03T02:23:28.563Z,0
2016-08-03T02:24:27.836Z,0
2016-08-03T02:25:29.957Z,0
2016-08-03T02:26:29.239Z,0
2016-08-03T02:27:27.815Z,0
2016-08-03T02:28:29.934Z,0
2016-08-03T02:29:27.795Z,0
2016-08-03T02:30:27.787Z,0
2016-08-03T02:31:28.486Z,0
2016-08-03T02:32:29.179Z,0
2016-08-03T02:33:28.467Z,0
2016-08-03T02:34:28.448Z,0
2016-08-03T02:35:29.151Z,0
2016-08-03T02:36:28.434Z,0
2016-08-03T02:37:28.432Z,0
2016-08-03T02:38:28.485Z,0
2016-08-03T02:39:27.701Z,0
2016-08-03T02:40:29.100Z,0
2016-08-03T02:41:29.804Z,0
2016-08-03T02:42:28.434Z,0
2016-08-03T02:43:28.373Z,0
2016-08-03T02:44:27.695Z,0
2016-08-03T02:45:29.119Z,0
2016-08-03T02:46:29.044Z,0
2016-08-03T02:47:29.089Z,0
2016-08-03T02:48:27.610Z,0
2016-08-03T02:49:29.728Z,0
2016-08-03T02:50:29.013Z,0
2016-08-03T02:51:27.585Z,0
2016-08-03T02:52:28.295Z,0
2016-08-03T02:53:27.617Z,0
2016-08-03T02:54:28.973Z,0
2016-08-03T02:55:27.811Z,0
2016-08-03T02:56:28.951Z,0
2016-08-03T02:57:28.230Z,0
2016-08-03T02:58:28.929Z,0
2016-08-03T02:59:28.224Z,0
2016-08-03T03:00:28.913Z,0
2016-08-03T03:01:28.904Z,0
2016-08-03T03:02:27.481Z,0
2016-08-03T03:03:28.883Z,0
2016-08-03T03:04:28.166Z,0
2016-08-03T03:05:28.155Z,0
2016-08-03T03:06:27.434Z,0
2016-08-03T03:07:28.846Z,0
2016-08-03T03:08:28.172Z,0
2016-08-03T03:09:28.166Z,0
2016-08-03T03:10:28.109Z,0
2016-08-03T03:11:28.102Z,0
2016-08-03T03:12:29.716Z,0
2016-08-03T03:13:28.075Z,0
2016-08-03T03:15:28.061Z,0
2016-08-03T03:16:27.341Z,0
2016-08-03T03:17:27.338Z,0
2016-08-03T03:18:28.025Z,0
2016-08-03T03:19:28.019Z,0
2016-08-03T03:20:27.304Z,0
2016-08-03T03:21:28.708Z,0
2016-08-03T03:22:27.996Z,0
2016-08-03T03:23:28.695Z,0
2016-08-03T03:24:28.681Z,0
2016-08-03T03:25:27.256Z,0
2016-08-03T03:26:27.993Z,0
2016-08-03T03:27:28.650Z,0
2016-08-03T03:28:29.353Z,0
2016-08-03T03:30:28.624Z,4
2016-08-03T03:31:27.923Z,4
2016-08-03T03:32:28.605Z,4
2016-08-03T03:33:27.181Z,0
2016-08-03T03:34:27.876Z,4
2016-08-03T03:35:27.871Z,4
2016-08-03T03:36:27.855Z,4
2016-08-03T03:37:27.847Z,4
2016-08-03T03:38:27.845Z,4
2016-08-03T03:39:27.830Z,4
2016-08-03T03:40:27.106Z,4
2016-08-03T03:41:28.514Z,8
2016-08-03T03:42:28.505Z,8
2016-08-03T03:43:27.798Z,8
2016-08-03T03:45:27.770Z,8
2016-08-03T03:46:27.763Z,8
2016-08-03T03:47:27.756Z,8
2016-08-03T03:48:27.742Z,8
2016-08-03T03:49:27.043Z,8
2016-08-03T03:50:27.726Z,8
2016-08-03T03:51:27.057Z,8
2016-08-03T03:52:26.995Z,8
2016-08-03T03:53:27.744Z,8
2016-08-03T03:54:27.682Z,12
2016-08-03T03:55:26.980Z,12
2016-08-03T03:56:29.130Z,12
2016-08-03T03:57:26.948Z,12
2016-08-03T03:58:29.077Z,12
2016-08-03T04:00:28.392Z,12
2016-08-03T04:01:27.621Z,16
2016-08-03T04:02:26.900Z,20
2016-08-03T04:03:27.593Z,16
2016-08-03T04:04:29.027Z,20
2016-08-03T04:05:26.874Z,24
2016-08-03T04:06:26.861Z,24
2016-08-03T04:07:27.562Z,32
2016-08-03T04:08:26.893Z,32
2016-08-03T04:09:27.545Z,28
2016-08-03T04:10:26.832Z,32
2016-08-03T04:11:28.236Z,44
2016-08-03T04:12:27.515Z,56
2016-08-03T04:13:28.212Z,56
2016-08-03T04:14:26.795Z,72
2016-08-03T04:15:27.484Z,84
2016-08-03T04:16:27.479Z,104
2016-08-03T04:17:27.468Z,152
2016-08-03T04:18:27.454Z,140
2016-08-03T04:19:26.744Z,144
2016-08-03T04:20:26.727Z,144
2016-08-03T04:21:26.730Z,124
2016-08-03T04:22:27.431Z,124
2016-08-03T04:23:27.425Z,144
2016-08-03T04:24:28.817Z,128
2016-08-03T04:25:26.689Z,120
2016-08-03T04:26:27.380Z,144
2016-08-03T04:27:27.378Z,156
2016-08-03T04:28:28.060Z,152
2016-08-03T04:29:26.636Z,184
2016-08-03T04:30:27.342Z,216
2016-08-03T04:31:26.623Z,296
2016-08-03T04:32:26.613Z,264
2016-08-03T04:33:27.316Z,244
2016-08-03T04:34:27.312Z,236
2016-08-03T04:35:28.003Z,252
2016-08-03T04:36:27.988Z,248
2016-08-03T04:37:27.271Z,300
2016-08-03T04:38:26.561Z,360
2016-08-03T04:39:27.249Z,344
2016-08-03T04:40:27.947Z,456
2016-08-03T04:41:27.943Z,512
2016-08-03T04:42:27.243Z,564
2016-08-03T04:43:27.215Z,492
2016-08-03T04:44:27.916Z,472
2016-08-03T04:45:26.496Z,496
2016-08-03T04:46:26.477Z,460
2016-08-03T04:47:27.904Z,536
2016-08-03T04:48:27.167Z,468
2016-08-03T04:49:27.161Z,384
2016-08-03T04:50:27.908Z,404
2016-08-03T04:51:27.850Z,392
2016-08-03T04:52:27.833Z,392
2016-08-03T04:53:27.831Z,424
2016-08-03T04:54:28.537Z,448
2016-08-03T04:55:28.025Z,440
2016-08-03T04:56:27.095Z,412
2016-08-03T04:57:27.090Z,436
2016-08-03T04:58:27.783Z,464
2016-08-03T04:59:27.773Z,456
2016-08-03T05:00:26.350Z,400
2016-08-03T05:01:27.758Z,444
2016-08-03T05:02:27.035Z,388
2016-08-03T05:03:27.086Z,436
2016-08-03T05:04:28.431Z,432
2016-08-03T05:05:26.310Z,500
2016-08-03T05:06:26.299Z,560
2016-08-03T05:07:28.408Z,568
2016-08-03T05:08:26.323Z,672
2016-08-03T05:09:26.966Z,684
2016-08-03T05:10:26.253Z,680
2016-08-03T05:11:27.662Z,824
2016-08-03T05:12:27.654Z,820
2016-08-03T05:13:26.222Z,776
2016-08-03T05:14:27.637Z,908
2016-08-03T05:15:26.923Z,924
2016-08-03T05:16:26.211Z,936
2016-08-03T05:17:26.892Z,892
2016-08-03T05:18:26.890Z,964
2016-08-03T05:19:26.881Z,1008
2016-08-03T05:20:28.282Z,904
2016-08-03T05:21:26.856Z,988
2016-08-03T05:22:27.554Z,892
2016-08-03T05:23:26.122Z,940
2016-08-03T05:24:26.837Z,828
2016-08-03T05:25:28.231Z,792
2016-08-03T05:26:26.819Z,800
2016-08-03T05:27:27.511Z,668
2016-08-03T05:28:26.787Z,760
2016-08-03T05:29:26.782Z,864
2016-08-03T05:30:26.777Z,1096
2016-08-03T05:31:26.760Z,1200
2016-08-03T05:32:26.043Z,1176
2016-08-03T05:33:28.153Z,1312
2016-08-03T05:34:27.432Z,1292
2016-08-03T05:35:26.725Z,1184
2016-08-03T05:36:27.425Z,1276
2016-08-03T05:37:26.703Z,1192
2016-08-03T05:38:28.111Z,1200
2016-08-03T05:39:28.103Z,1192
2016-08-03T05:40:27.380Z,1432
2016-08-03T05:41:26.663Z,1412
2016-08-03T05:42:26.657Z,1324
2016-08-03T05:43:26.643Z,1696
2016-08-03T05:44:28.051Z,1596
2016-08-03T05:45:25.912Z,1464
2016-08-03T05:46:26.620Z,1800
2016-08-03T05:47:27.314Z,2192
2016-08-03T05:48:26.601Z,2440
2016-08-03T05:49:27.308Z,2444
2016-08-03T05:50:27.287Z,2216
2016-08-03T05:51:27.283Z,2268
2016-08-03T05:52:26.558Z,1900
2016-08-03T05:53:27.255Z,1688
2016-08-03T05:54:26.540Z,1448
2016-08-03T05:55:25.828Z,1808
2016-08-03T05:56:25.812Z,1984
2016-08-03T05:57:26.514Z,1884
2016-08-03T05:58:27.924Z,1472
2016-08-03T05:59:26.490Z,1092
2016-08-03T06:00:25.769Z,1044
2016-08-03T06:01:26.478Z,912
2016-08-03T06:02:27.175Z,880
2016-08-03T06:03:26.457Z,940
2016-08-03T06:04:27.174Z,952
2016-08-03T06:05:25.735Z,1152
2016-08-03T06:06:25.722Z,1136
2016-08-03T06:07:26.413Z,1128
2016-08-03T06:08:27.818Z,1136
2016-08-03T06:09:26.398Z,1128
2016-08-03T06:10:26.388Z,1036
2016-08-03T06:11:26.380Z,996
2016-08-03T06:12:26.368Z,1200
2016-08-03T06:13:26.373Z,1088
2016-08-03T06:14:26.354Z,1128
2016-08-03T06:15:25.639Z,1084
2016-08-03T06:16:25.625Z,1056
2016-08-03T06:17:26.340Z,1472
2016-08-03T06:18:26.321Z,1452
2016-08-03T06:19:27.012Z,1212
2016-08-03T06:20:27.013Z,1508
2016-08-03T06:21:26.290Z,1568
2016-08-03T06:22:27.002Z,1664
2016-08-03T06:23:26.270Z,1392
2016-08-03T06:24:26.255Z,1416
2016-08-03T06:25:27.663Z,1456
2016-08-03T06:26:26.237Z,1332
2016-08-03T06:27:26.232Z,1776
2016-08-03T06:28:25.517Z,2180
2016-08-03T06:29:26.920Z,1944
2016-08-03T06:31:26.896Z,1980
2016-08-03T06:32:25.479Z,2208
2016-08-03T06:33:26.176Z,2556
2016-08-03T06:34:26.869Z,2548
2016-08-03T06:35:27.566Z,2096
2016-08-03T06:36:26.147Z,2076
2016-08-03T06:37:26.843Z,2200
2016-08-03T06:38:26.844Z,1888
2016-08-03T06:39:26.828Z,2064
2016-08-03T06:40:26.819Z,2032
2016-08-03T06:41:26.823Z,1960
2016-08-03T06:42:26.096Z,2140
2016-08-03T06:43:25.374Z,1972
2016-08-03T06:44:26.074Z,1948
2016-08-03T06:46:26.047Z,1568
2016-08-03T06:47:26.040Z,1392
2016-08-03T06:48:25.329Z,1404
2016-08-03T06:49:26.730Z,1924
2016-08-03T06:50:26.724Z,1600
2016-08-03T06:51:27.425Z,1888
2016-08-03T06:52:26.710Z,1944
2016-08-03T06:53:25.987Z,2556
2016-08-03T06:54:25.984Z,2524
2016-08-03T06:55:26.173Z,2168
2016-08-03T06:56:25.963Z,2032
2016-08-03T06:57:25.954Z,2524
2016-08-03T06:58:25.988Z,2244
2016-08-03T06:59:25.277Z,1932
2016-08-03T07:01:25.912Z,2284
2016-08-03T07:02:25.206Z,1964
2016-08-03T07:03:25.195Z,1772
2016-08-03T07:04:25.894Z,2224
2016-08-03T07:05:25.878Z,2236
2016-08-03T07:06:25.868Z,2680
2016-08-03T07:07:26.563Z,2504
2016-08-03T07:08:25.863Z,2708
2016-08-03T07:09:25.840Z,2320
2016-08-03T07:10:26.541Z,2344
2016-08-03T07:11:25.822Z,2196
2016-08-03T07:12:26.576Z,2624
2016-08-03T07:13:27.222Z,3176
2016-08-03T07:14:25.795Z,2888
2016-08-03T07:16:26.472Z,2920
2016-08-03T07:17:25.057Z,2544
2016-08-03T07:18:25.757Z,2012
2016-08-03T07:19:25.034Z,1744
2016-08-03T07:20:25.032Z,1732
2016-08-03T07:21:25.728Z,1740
2016-08-03T07:22:26.489Z,2132
2016-08-03T07:23:26.427Z,2356
2016-08-03T07:24:25.704Z,1924
2016-08-03T07:25:25.693Z,1888
2016-08-03T07:26:25.686Z,1852
2016-08-03T07:27:26.383Z,1856
2016-08-03T07:28:26.382Z,1908
2016-08-03T07:29:25.656Z,1964
2016-08-03T07:31:26.341Z,2000
2016-08-03T07:32:26.351Z,1828
2016-08-03T07:33:25.621Z,1936
2016-08-03T07:34:25.612Z,1988
2016-08-03T07:35:25.606Z,2116
2016-08-03T07:36:25.590Z,2580
2016-08-03T07:37:26.288Z,2348
2016-08-03T07:38:26.280Z,2692
2016-08-03T07:39:25.563Z,2612
2016-08-03T07:40:26.969Z,2912
2016-08-03T07:41:26.250Z,3608
2016-08-03T07:42:24.825Z,3556
2016-08-03T07:43:25.532Z,3120
2016-08-03T07:44:25.525Z,3804
2016-08-03T07:46:25.496Z,3356
2016-08-03T07:47:26.902Z,3964
2016-08-03T07:48:24.772Z,3836
2016-08-03T07:49:26.182Z,3580
2016-08-03T07:50:25.474Z,3428
2016-08-03T07:51:25.457Z,3668
2016-08-03T07:52:26.156Z,3140
2016-08-03T07:53:25.434Z,3504
2016-08-03T07:54:25.430Z,3616
2016-08-03T07:55:26.142Z,4268
2016-08-03T07:56:26.123Z,4196
2016-08-03T07:57:26.104Z,4216
2016-08-03T07:58:26.108Z,4344
2016-08-03T07:59:26.095Z,3780
2016-08-03T08:00:25.370Z,3252
2016-08-03T08:01:25.361Z,3116
2016-08-03T08:02:24.646Z,3744
2016-08-03T08:03:26.050Z,3624
2016-08-03T08:04:25.335Z,3560
2016-08-03T08:05:25.327Z,3608
2016-08-03T08:06:26.027Z,3412
2016-08-03T08:07:24.612Z,3132
2016-08-03T08:08:25.346Z,2932
2016-08-03T08:09:25.287Z,3248
2016-08-03T08:10:25.989Z,3348
2016-08-03T08:11:25.269Z,3432
2016-08-03T08:12:25.267Z,3748
2016-08-03T08:13:26.665Z,3740
2016-08-03T08:14:25.947Z,3764
2016-08-03T08:15:25.941Z,3048
2016-08-03T08:16:25.233Z,3576
2016-08-03T08:17:25.934Z,3716
2016-08-03T08:18:25.206Z,4060
2016-08-03T08:19:24.501Z,3832
2016-08-03T08:20:24.485Z,4596
2016-08-03T08:21:25.902Z,4440
2016-08-03T08:22:25.876Z,5520
2016-08-03T08:23:25.167Z,4696
2016-08-03T08:24:26.570Z,5852
2016-08-03T08:25:25.147Z,5228
2016-08-03T08:26:25.845Z,5836
2016-08-03T08:27:25.839Z,5644
2016-08-03T08:28:25.115Z,4572
2016-08-03T08:29:25.109Z,3852
2016-08-03T08:30:26.534Z,4072
2016-08-03T08:31:24.391Z,4852
2016-08-03T08:32:25.086Z,5716
2016-08-03T08:33:24.369Z,4400
2016-08-03T08:34:25.781Z,6804
2016-08-03T08:35:24.352Z,6884
2016-08-03T08:36:25.809Z,7888
2016-08-03T08:37:25.759Z,9108
2016-08-03T08:38:26.443Z,9492
2016-08-03T08:39:25.023Z,7408
2016-08-03T08:40:24.309Z,8568
2016-08-03T08:41:25.006Z,6904
2016-08-03T08:42:25.048Z,7160
2016-08-03T08:43:24.998Z,7160
2016-08-03T08:44:24.980Z,5208
2016-08-03T08:45:24.265Z,5584
2016-08-03T08:46:24.961Z,6020
2016-08-03T08:47:24.955Z,5236
2016-08-03T08:48:24.953Z,5300
2016-08-03T08:49:24.939Z,5988
2016-08-03T08:50:24.225Z,6888
2016-08-03T08:51:24.916Z,5444
2016-08-03T08:52:24.927Z,4568
2016-08-03T08:53:24.202Z,4864
2016-08-03T08:54:26.319Z,4888
2016-08-03T08:55:25.084Z,5180
2016-08-03T08:56:25.584Z,4976
2016-08-03T08:57:25.572Z,5444
2016-08-03T08:58:24.151Z,5336
2016-08-03T08:59:26.262Z,5600
2016-08-03T09:00:25.555Z,4416
2016-08-03T09:01:24.838Z,4420
2016-08-03T09:02:24.824Z,4808
2016-08-03T09:03:25.572Z,4888
2016-08-03T09:04:25.536Z,4292
2016-08-03T09:05:26.214Z,4496
2016-08-03T09:06:25.501Z,4996
2016-08-03T09:07:24.792Z,6004
2016-08-03T09:08:24.771Z,5176
2016-08-03T09:09:24.761Z,4148
2016-08-03T09:10:26.170Z,4780
2016-08-03T09:11:24.038Z,4764
2016-08-03T09:12:24.041Z,4688
2016-08-03T09:13:26.145Z,4220
2016-08-03T09:14:24.027Z,4612
2016-08-03T09:15:25.431Z,4196
2016-08-03T09:16:25.418Z,4408
2016-08-03T09:17:25.414Z,4636
2016-08-03T09:18:24.688Z,4400
2016-08-03T09:19:24.680Z,3292
2016-08-03T09:20:23.967Z,3644
2016-08-03T09:21:25.368Z,3844
2016-08-03T09:22:23.955Z,4112
2016-08-03T09:23:24.741Z,3724
2016-08-03T09:24:25.352Z,3232
2016-08-03T09:25:23.928Z,3364
2016-08-03T09:26:25.326Z,3096
2016-08-03T09:27:23.966Z,3136
2016-08-03T09:28:24.621Z,3340
2016-08-03T09:29:24.589Z,3692
2016-08-03T09:30:24.586Z,3088
2016-08-03T09:31:25.287Z,3216
2016-08-03T09:32:23.870Z,3112
2016-08-03T09:33:25.978Z,4340
2016-08-03T09:34:23.844Z,4904
2016-08-03T09:35:25.247Z,5392
2016-08-03T09:36:25.239Z,6296
2016-08-03T09:37:23.824Z,5140
2016-08-03T09:38:24.524Z,4376
2016-08-03T09:39:24.508Z,5320
2016-08-03T09:40:24.496Z,5968
2016-08-03T09:41:23.792Z,5512
2016-08-03T09:42:25.196Z,5620
2016-08-03T09:43:23.765Z,5388
2016-08-03T09:44:24.468Z,5680
2016-08-03T09:45:25.177Z,6192
2016-08-03T09:46:25.160Z,6120
2016-08-03T09:47:25.166Z,6232
2016-08-03T09:48:24.429Z,6448
2016-08-03T09:49:23.721Z,6596
2016-08-03T09:50:24.460Z,7436
2016-08-03T09:51:24.407Z,7892
2016-08-03T09:52:24.400Z,7472
2016-08-03T09:53:24.436Z,9068
2016-08-03T09:54:24.388Z,7964
2016-08-03T09:55:25.080Z,7508
2016-08-03T09:56:24.372Z,9300
2016-08-03T09:57:25.075Z,7028
2016-08-03T09:58:23.637Z,7000
2016-08-03T09:59:25.057Z,5848
2016-08-03T10:00:23.625Z,5228
2016-08-03T10:01:24.344Z,5024
2016-08-03T10:02:23.609Z,4720
2016-08-03T10:03:23.632Z,5496
2016-08-03T10:04:25.018Z,4864
2016-08-03T10:05:25.003Z,5472
2016-08-03T10:06:24.988Z,4680
2016-08-03T10:07:24.292Z,4356
2016-08-03T10:08:24.972Z,3440
2016-08-03T10:09:24.258Z,3252
2016-08-03T10:10:24.268Z,3128
2016-08-03T10:11:24.246Z,3248
2016-08-03T10:12:25.657Z,3272
2016-08-03T10:13:25.637Z,3424
2016-08-03T10:14:24.218Z,3288
2016-08-03T10:15:24.206Z,3544
2016-08-03T10:16:23.462Z,3856
2016-08-03T10:17:24.185Z,4340
2016-08-03T10:18:24.198Z,3940
2016-08-03T10:19:25.582Z,4172
2016-08-03T10:20:24.172Z,4124
2016-08-03T10:21:24.168Z,4044
2016-08-03T10:22:24.154Z,4424
2016-08-03T10:23:24.847Z,4124
2016-08-03T10:24:24.850Z,3756
2016-08-03T10:25:24.145Z,3804
2016-08-03T10:26:24.821Z,5108
2016-08-03T10:27:23.397Z,4852
2016-08-03T10:28:24.099Z,6232
2016-08-03T10:29:24.097Z,6952
2016-08-03T10:30:23.377Z,5960
2016-08-03T10:31:23.337Z,7568
2016-08-03T10:32:24.771Z,7680
2016-08-03T10:33:24.766Z,8920
2016-08-03T10:34:25.459Z,8172
2016-08-03T10:35:24.750Z,7820
2016-08-03T10:36:23.328Z,6124
2016-08-03T10:37:24.037Z,4392
2016-08-03T10:38:24.726Z,4160
2016-08-03T10:39:24.008Z,4876
2016-08-03T10:40:25.415Z,5196
2016-08-03T10:41:24.702Z,3928
2016-08-03T10:42:23.275Z,3648
2016-08-03T10:43:24.685Z,3552
2016-08-03T10:44:24.679Z,3408
2016-08-03T10:45:23.977Z,3624
2016-08-03T10:47:23.941Z,5100
2016-08-03T10:48:23.227Z,4232
2016-08-03T10:49:23.926Z,4112
2016-08-03T10:50:25.332Z,4400
2016-08-03T10:51:23.911Z,4396
2016-08-03T10:52:23.187Z,4080
2016-08-03T10:53:24.089Z,4012
2016-08-03T10:54:25.291Z,3364
2016-08-03T10:55:24.303Z,3976
2016-08-03T10:56:23.883Z,3632
2016-08-03T10:57:23.200Z,3232
2016-08-03T10:58:24.559Z,3516
2016-08-03T10:59:23.848Z,3136
2016-08-03T11:00:25.255Z,3880
2016-08-03T11:02:23.108Z,3812
2016-08-03T11:03:23.102Z,3776
2016-08-03T11:04:23.798Z,4140
2016-08-03T11:05:25.207Z,3660
2016-08-03T11:06:23.784Z,4216
2016-08-03T11:07:24.480Z,4992
2016-08-03T11:08:23.757Z,4424
2016-08-03T11:09:25.164Z,4608
2016-08-03T11:10:23.744Z,5176
2016-08-03T11:11:23.030Z,4944
2016-08-03T11:12:24.437Z,4560
2016-08-03T11:13:23.011Z,4696
2016-08-03T11:14:24.422Z,4740
2016-08-03T11:15:24.408Z,4588
2016-08-03T11:17:25.105Z,4700
2016-08-03T11:18:24.391Z,5144
2016-08-03T11:19:23.673Z,5248
2016-08-03T11:20:23.663Z,5468
2016-08-03T11:21:24.370Z,5008
2016-08-03T11:22:24.354Z,4144
2016-08-03T11:23:25.059Z,4460
2016-08-03T11:24:24.338Z,3924
2016-08-03T11:25:23.637Z,3772
2016-08-03T11:26:23.621Z,4580
2016-08-03T11:27:22.898Z,4128
2016-08-03T11:28:23.589Z,4336
2016-08-03T11:29:22.873Z,5888
2016-08-03T11:30:22.869Z,6640
2016-08-03T11:32:24.270Z,6468
2016-08-03T11:33:23.550Z,5248
2016-08-03T11:34:23.599Z,7172
2016-08-03T11:35:23.535Z,5640
2016-08-03T11:36:22.820Z,4800
2016-08-03T11:37:23.518Z,4720
2016-08-03T11:38:23.509Z,6160
2016-08-03T11:39:24.909Z,5840
2016-08-03T11:40:23.496Z,7404
2016-08-03T11:41:23.492Z,4644
2016-08-03T11:42:22.778Z,7236
2016-08-03T11:43:24.186Z,5732
2016-08-03T11:44:24.871Z,5004
2016-08-03T11:45:23.452Z,3776
2016-08-03T11:47:22.732Z,4508
2016-08-03T11:48:23.427Z,4436
2016-08-03T11:49:24.128Z,5328
2016-08-03T11:50:23.408Z,5184
2016-08-03T11:51:24.104Z,4352
2016-08-03T11:52:22.698Z,4144
2016-08-03T11:53:23.383Z,3952
2016-08-03T11:54:24.795Z,3528
2016-08-03T11:55:24.076Z,3304
2016-08-03T11:56:23.410Z,3372
2016-08-03T11:57:22.647Z,4204
2016-08-03T11:58:24.052Z,4064
2016-08-03T11:59:23.339Z,3704
2016-08-03T12:00:23.327Z,3844
2016-08-03T12:02:24.773Z,4844
2016-08-03T12:03:24.203Z,5780
2016-08-03T12:04:23.288Z,7340
2016-08-03T12:05:24.747Z,9380
2016-08-03T12:06:23.981Z,10464
2016-08-03T12:07:23.269Z,10804
2016-08-03T12:08:23.965Z,11188
2016-08-03T12:09:22.544Z,6212
2016-08-03T12:10:22.537Z,5116
2016-08-03T12:11:23.938Z,5588
2016-08-03T12:12:23.226Z,6900
2016-08-03T12:13:23.211Z,8492
2016-08-03T12:14:24.634Z,8756
2016-08-03T12:15:23.199Z,11204
2016-08-03T12:17:22.472Z,9404
2016-08-03T12:18:23.170Z,8280
2016-08-03T12:19:23.881Z,6080
2016-08-03T12:20:23.154Z,5456
2016-08-03T12:21:23.147Z,6932
2016-08-03T12:22:23.157Z,7688
2016-08-03T12:23:23.136Z,5884
2016-08-03T12:24:23.846Z,4580
2016-08-03T12:25:23.181Z,5236
2016-08-03T12:26:23.118Z,6732
2016-08-03T12:27:22.405Z,6024
2016-08-03T12:28:23.100Z,8512
2016-08-03T12:29:22.384Z,8152
2016-08-03T12:30:23.078Z,8444
2016-08-03T12:31:22.368Z,6588
2016-08-03T12:32:22.364Z,5396
2016-08-03T12:33:23.070Z,5760
2016-08-03T12:34:23.046Z,5200
2016-08-03T12:35:23.046Z,5292
2016-08-03T12:36:22.330Z,5056
2016-08-03T12:37:23.045Z,5200
2016-08-03T12:38:22.312Z,5012
2016-08-03T12:39:23.722Z,4272
2016-08-03T12:40:23.001Z,4728
2016-08-03T12:41:23.703Z,3516
2016-08-03T12:42:22.299Z,3752
2016-08-03T12:43:22.273Z,2884
2016-08-03T12:44:23.676Z,2720
2016-08-03T12:45:22.255Z,3304
2016-08-03T12:46:22.245Z,2320
2016-08-03T12:47:22.243Z,3328
2016-08-03T12:48:23.644Z,4504
2016-08-03T12:49:22.925Z,2928
2016-08-03T12:50:22.925Z,2184
2016-08-03T12:51:23.629Z,2204
2016-08-03T12:52:22.245Z,2580
2016-08-03T12:53:22.893Z,3812
2016-08-03T12:54:22.944Z,3036
2016-08-03T12:55:23.638Z,4976
2016-08-03T12:56:23.119Z,4624
2016-08-03T12:57:23.569Z,5556
2016-08-03T12:58:23.562Z,9184
2016-08-03T12:59:22.841Z,9668
2016-08-03T13:00:23.545Z,8764
2016-08-03T13:01:23.534Z,8476
2016-08-03T13:02:22.830Z,7356
2016-08-03T13:03:22.819Z,7752
2016-08-03T13:04:22.100Z,4720
2016-08-03T13:05:22.095Z,3664
2016-08-03T13:06:22.079Z,3540
2016-08-03T13:07:24.230Z,3560
2016-08-03T13:08:22.772Z,3396
2016-08-03T13:09:23.530Z,4508
2016-08-03T13:10:22.758Z,4964
2016-08-03T13:11:22.759Z,4904
2016-08-03T13:12:22.740Z,6600
2016-08-03T13:13:22.730Z,6068
2016-08-03T13:14:22.716Z,7828
2016-08-03T13:15:22.010Z,7088
2016-08-03T13:16:22.705Z,5828
2016-08-03T13:17:23.415Z,4144
2016-08-03T13:18:23.398Z,3456
2016-08-03T13:19:21.967Z,4448
2016-08-03T13:20:23.424Z,3536
2016-08-03T13:21:22.660Z,3332
2016-08-03T13:22:22.708Z,3564
2016-08-03T13:23:22.707Z,3584
2016-08-03T13:24:21.932Z,3420
2016-08-03T13:25:23.348Z,3888
2016-08-03T13:26:22.625Z,3292
2016-08-03T13:27:22.616Z,2928
2016-08-03T13:28:22.605Z,2768
2016-08-03T13:29:23.325Z,2788
2016-08-03T13:30:23.300Z,3444
2016-08-03T13:31:22.588Z,3304
2016-08-03T13:32:23.981Z,5260
2016-08-03T13:33:23.268Z,6288
2016-08-03T13:34:23.260Z,5836
2016-08-03T13:35:22.540Z,4312
2016-08-03T13:36:23.232Z,4332
2016-08-03T13:37:23.232Z,5676
2016-08-03T13:38:22.510Z,6140
2016-08-03T13:39:23.207Z,4716
2016-08-03T13:40:21.797Z,4260
2016-08-03T13:41:23.201Z,4764
2016-08-03T13:42:22.478Z,7632
2016-08-03T13:43:23.186Z,8308
2016-08-03T13:44:22.465Z,8252
2016-08-03T13:45:21.745Z,7840
2016-08-03T13:46:23.159Z,5104
2016-08-03T13:47:22.463Z,4272
2016-08-03T13:48:23.129Z,4428
2016-08-03T13:49:22.416Z,4588
2016-08-03T13:50:23.151Z,5664
2016-08-03T13:51:22.405Z,5004
2016-08-03T13:52:22.396Z,4916
2016-08-03T13:53:22.393Z,4592
2016-08-03T13:54:23.089Z,5048
2016-08-03T13:55:21.675Z,5160
2016-08-03T13:56:23.064Z,6716
2016-08-03T13:57:22.355Z,8116
2016-08-03T13:58:22.339Z,7548
2016-08-03T13:59:21.678Z,7316
2016-08-03T14:00:22.326Z,8024
2016-08-03T14:01:22.373Z,6612
2016-08-03T14:02:21.598Z,6188
2016-08-03T14:03:22.303Z,7020